sensor_id;sensor_type;location;lat;lon;timestamp;pressure;altitude;pressure_sealevel;temperature;humidity
65880;BME280;52661;51.364;6.054;2023-02-18T00:01:24;101923.16;;;10.81;100.00
65880;BME280;52661;51.364;6.054;2023-02-18T00:03:50;101916.94;;;10.81;100.00
65880;BME280;52661;51.364;6.054;2023-02-18T00:08:43;101908.00;;;10.80;100.00
65880;BME280;52661;51.364;6.054;2023-02-18T00:11:09;101902.13;;;10.78;100.00
65880;BME280;52661;51.364;6.054;2023-02-18T00:13:35;101902.91;;;10.79;100.00
65880;BME280;52661;51.364;6.054;2023-02-18T00:16:02;101903.34;;;10.81;100.00
65880;BME280;52661;51.364;6.054;2023-02-18T00:18:29;101896.75;;;10.82;100.00
65880;BME280;52661;51.364;6.054;2023-02-18T00:20:54;101895.22;;;10.81;100.00
65880;BME280;52661;51.364;6.054;2023-02-18T00:23:19;101900.63;;;10.81;100.00
65880;BME280;52661;51.364;6.054;2023-02-18T00:25:45;101888.59;;;10.82;100.00
65880;BME280;52661;51.364;6.054;2023-02-18T00:28:10;101884.34;;;10.81;100.00
65880;BME280;52661;51.364;6.054;2023-02-18T00:30:42;101891.25;;;10.78;100.00
65880;BME280;52661;51.364;6.054;2023-02-18T00:33:08;101887.34;;;10.76;100.00
65880;BME280;52661;51.364;6.054;2023-02-18T00:35:34;101881.13;;;10.75;100.00
65880;BME280;52661;51.364;6.054;2023-02-18T00:37:59;101880.34;;;10.75;100.00
65880;BME280;52661;51.364;6.054;2023-02-18T00:40:25;101871.41;;;10.74;100.00
65880;BME280;52661;51.364;6.054;2023-02-18T00:42:50;101876.06;;;10.74;100.00
65880;BME280;52661;51.364;6.054;2023-02-18T00:45:15;101881.06;;;10.72;100.00
65880;BME280;52661;51.364;6.054;2023-02-18T00:47:41;101879.13;;;10.72;100.00
65880;BME280;52661;51.364;6.054;2023-02-18T00:50:08;101874.06;;;10.71;100.00
65880;BME280;52661;51.364;6.054;2023-02-18T00:52:33;101879.50;;;10.71;100.00
65880;BME280;52661;51.364;6.054;2023-02-18T00:54:59;101880.66;;;10.70;100.00
65880;BME280;52661;51.364;6.054;2023-02-18T00:57:24;101869.78;;;10.70;100.00
65880;BME280;52661;51.364;6.054;2023-02-18T00:59:50;101872.84;;;10.68;100.00
65880;BME280;52661;51.364;6.054;2023-02-18T01:02:15;101865.50;;;10.69;100.00
65880;BME280;52661;51.364;6.054;2023-02-18T01:04:40;101860.41;;;10.67;100.00
65880;BME280;52661;51.364;6.054;2023-02-18T01:07:06;101857.28;;;10.65;100.00
65880;BME280;52661;51.364;6.054;2023-02-18T01:09:31;101856.09;;;10.63;100.00
65880;BME280;52661;51.364;6.054;2023-02-18T01:11:56;101850.22;;;10.61;100.00
65880;BME280;52661;51.364;6.054;2023-02-18T01:14:22;101846.66;;;10.57;100.00
65880;BME280;52661;51.364;6.054;2023-02-18T01:16:50;101847.81;;;10.56;100.00
65880;BME280;52661;51.364;6.054;2023-02-18T01:19:16;101843.03;;;10.49;100.00
65880;BME280;52661;51.364;6.054;2023-02-18T01:21:41;101841.03;;;10.46;100.00
65880;BME280;52661;51.364;6.054;2023-02-18T01:24:06;101842.53;;;10.44;100.00
65880;BME280;52661;51.364;6.054;2023-02-18T01:26:32;101844.41;;;10.40;100.00
65880;BME280;52661;51.364;6.054;2023-02-18T01:28:57;101835.41;;;10.35;100.00
65880;BME280;52661;51.364;6.054;2023-02-18T01:31:22;101833.13;;;10.38;100.00
65880;BME280;52661;51.364;6.054;2023-02-18T01:33:47;101836.97;;;10.36;100.00
65880;BME280;52661;51.364;6.054;2023-02-18T01:36:13;101828.78;;;10.33;100.00
65880;BME280;52661;51.364;6.054;2023-02-18T01:38:38;101830.34;;;10.34;100.00
65880;BME280;52661;51.364;6.054;2023-02-18T01:41:04;101820.56;;;10.29;100.00
65880;BME280;52661;51.364;6.054;2023-02-18T01:43:29;101815.94;;;10.30;100.00
65880;BME280;52661;51.364;6.054;2023-02-18T01:46:07;101823.28;;;10.29;100.00
65880;BME280;52661;51.364;6.054;2023-02-18T01:48:47;101808.88;;;10.25;100.00
65880;BME280;52661;51.364;6.054;2023-02-18T01:51:38;101812.38;;;10.26;100.00
65880;BME280;52661;51.364;6.054;2023-02-18T01:54:07;101822.84;;;10.27;100.00
65880;BME280;52661;51.364;6.054;2023-02-18T01:56:40;101812.00;;;10.27;100.00
65880;BME280;52661;51.364;6.054;2023-02-18T01:59:10;101813.56;;;10.28;100.00
65880;BME280;52661;51.364;6.054;2023-02-18T02:01:39;101805.44;;;10.28;100.00
65880;BME280;52661;51.364;6.054;2023-02-18T02:04:06;101800.72;;;10.25;100.00
65880;BME280;52661;51.364;6.054;2023-02-18T02:06:32;101805.81;;;10.27;100.00
65880;BME280;52661;51.364;6.054;2023-02-18T02:08:59;101798.00;;;10.25;100.00
65880;BME280;52661;51.364;6.054;2023-02-18T02:14:19;101787.94;;;10.26;100.00
65880;BME280;52661;51.364;6.054;2023-02-18T02:22:04;101785.09;;;10.19;100.00
65880;BME280;52661;51.364;6.054;2023-02-18T02:25:05;101785.09;;;10.19;100.00
65880;BME280;52661;51.364;6.054;2023-02-18T02:36:15;101776.53;;;10.17;100.00
65880;BME280;52661;51.364;6.054;2023-02-18T02:47:06;101757.53;;;10.17;100.00
65880;BME280;52661;51.364;6.054;2023-02-18T02:49:36;101752.09;;;10.17;100.00
65880;BME280;52661;51.364;6.054;2023-02-18T02:52:10;101755.59;;;10.17;100.00
65880;BME280;52661;51.364;6.054;2023-02-18T02:54:37;101745.97;;;10.20;100.00
65880;BME280;52661;51.364;6.054;2023-02-18T02:59:38;101740.97;;;10.22;100.00
65880;BME280;52661;51.364;6.054;2023-02-18T03:05:21;101740.56;;;10.20;100.00
65880;BME280;52661;51.364;6.054;2023-02-18T03:18:51;101727.41;;;10.22;100.00
65880;BME280;52661;51.364;6.054;2023-02-18T03:21:31;101720.78;;;10.19;100.00
65880;BME280;52661;51.364;6.054;2023-02-18T03:24:06;101714.19;;;10.20;100.00
65880;BME280;52661;51.364;6.054;2023-02-18T03:26:35;101700.63;;;10.20;100.00
65880;BME280;52661;51.364;6.054;2023-02-18T03:29:06;101699.41;;;10.18;100.00
65880;BME280;52661;51.364;6.054;2023-02-18T03:31:33;101686.25;;;10.16;100.00
65880;BME280;52661;51.364;6.054;2023-02-18T03:34:10;101672.59;;;10.13;100.00
65880;BME280;52661;51.364;6.054;2023-02-18T03:36:37;101673.72;;;10.12;100.00
65880;BME280;52661;51.364;6.054;2023-02-18T03:39:06;101659.72;;;10.10;100.00
65880;BME280;52661;51.364;6.054;2023-02-18T03:41:34;101653.16;;;10.11;100.00
65880;BME280;52661;51.364;6.054;2023-02-18T03:44:06;101652.75;;;10.09;100.00
65880;BME280;52661;51.364;6.054;2023-02-18T03:46:33;101648.47;;;10.08;100.00
65880;BME280;52661;51.364;6.054;2023-02-18T03:48:59;101646.16;;;10.10;100.00
65880;BME280;52661;51.364;6.054;2023-02-18T03:51:25;101645.38;;;10.09;100.00
65880;BME280;52661;51.364;6.054;2023-02-18T03:53:51;101650.03;;;10.09;100.00
65880;BME280;52661;51.364;6.054;2023-02-18T03:56:16;101641.09;;;10.08;100.00
65880;BME280;52661;51.364;6.054;2023-02-18T03:58:42;101628.69;;;10.07;100.00
65880;BME280;52661;51.364;6.054;2023-02-18T04:01:07;101643.81;;;10.08;100.00
65880;BME280;52661;51.364;6.054;2023-02-18T04:03:32;101642.59;;;10.06;100.00
65880;BME280;52661;51.364;6.054;2023-02-18T04:05:58;101643.38;;;10.06;100.00
65880;BME280;52661;51.364;6.054;2023-02-18T04:08:24;101645.69;;;10.04;100.00
65880;BME280;52661;51.364;6.054;2023-02-18T04:10:49;101634.78;;;10.01;100.00
65880;BME280;52661;51.364;6.054;2023-02-18T04:13:15;101630.50;;;10.00;100.00
65880;BME280;52661;51.364;6.054;2023-02-18T04:15:42;101629.28;;;9.97;100.00
65880;BME280;52661;51.364;6.054;2023-02-18T04:18:08;101627.78;;;10.00;100.00
65880;BME280;52661;51.364;6.054;2023-02-18T04:20:33;101630.09;;;9.98;100.00
65880;BME280;52661;51.364;6.054;2023-02-18T04:22:58;101621.56;;;9.99;100.00
65880;BME280;52661;51.364;6.054;2023-02-18T04:25:24;101617.31;;;9.98;100.00
65880;BME280;52661;51.364;6.054;2023-02-18T04:27:49;101625.78;;;9.97;100.00
65880;BME280;52661;51.364;6.054;2023-02-18T04:30:15;101625.00;;;9.96;100.00
65880;BME280;52661;51.364;6.054;2023-02-18T04:32:40;101619.97;;;9.95;100.00
65880;BME280;52661;51.364;6.054;2023-02-18T04:35:05;101619.19;;;9.94;100.00
65880;BME280;52661;51.364;6.054;2023-02-18T04:37:31;101625.75;;;9.93;100.00
65880;BME280;52661;51.364;6.054;2023-02-18T04:39:56;101615.69;;;9.94;100.00
65880;BME280;52661;51.364;6.054;2023-02-18T04:42:22;101616.03;;;9.92;100.00
65880;BME280;52661;51.364;6.054;2023-02-18T04:44:47;101611.38;;;9.93;100.00
65880;BME280;52661;51.364;6.054;2023-02-18T04:47:13;101614.09;;;9.93;100.00
65880;BME280;52661;51.364;6.054;2023-02-18T04:49:38;101610.25;;;9.94;100.00
65880;BME280;52661;51.364;6.054;2023-02-18T04:52:04;101598.97;;;9.92;100.00
65880;BME280;52661;51.364;6.054;2023-02-18T04:54:29;101614.47;;;9.91;100.00
65880;BME280;52661;51.364;6.054;2023-02-18T04:56:55;101604.78;;;9.90;100.00
65880;BME280;52661;51.364;6.054;2023-02-18T04:59:20;101617.59;;;9.93;100.00
65880;BME280;52661;51.364;6.054;2023-02-18T05:01:45;101605.91;;;9.89;100.00
65880;BME280;52661;51.364;6.054;2023-02-18T05:04:11;101602.41;;;9.88;100.00
65880;BME280;52661;51.364;6.054;2023-02-18T05:06:36;101616.75;;;9.89;100.00
65880;BME280;52661;51.364;6.054;2023-02-18T05:09:04;101603.19;;;9.89;100.00
65880;BME280;52661;51.364;6.054;2023-02-18T05:11:30;101596.19;;;9.88;100.00
65880;BME280;52661;51.364;6.054;2023-02-18T05:13:55;101604.31;;;9.88;100.00
65880;BME280;52661;51.364;6.054;2023-02-18T05:16:20;101579.94;;;9.88;100.00
65880;BME280;52661;51.364;6.054;2023-02-18T05:18:46;101581.09;;;9.87;100.00
65880;BME280;52661;51.364;6.054;2023-02-18T05:21:11;101579.09;;;9.84;100.00
65880;BME280;52661;51.364;6.054;2023-02-18T05:23:36;101578.72;;;9.85;100.00
65880;BME280;52661;51.364;6.054;2023-02-18T05:26:02;101579.47;;;9.82;100.00
65880;BME280;52661;51.364;6.054;2023-02-18T05:28:27;101574.81;;;9.83;100.00
65880;BME280;52661;51.364;6.054;2023-02-18T05:30:53;101563.97;;;9.83;100.00
65880;BME280;52661;51.364;6.054;2023-02-18T05:33:18;101566.31;;;9.84;100.00
65880;BME280;52661;51.364;6.054;2023-02-18T05:35:44;101558.56;;;9.83;100.00
65880;BME280;52661;51.364;6.054;2023-02-18T05:38:09;101548.84;;;9.82;100.00
65880;BME280;52661;51.364;6.054;2023-02-18T05:40:34;101555.06;;;9.82;100.00
65880;BME280;52661;51.364;6.054;2023-02-18T05:43:00;101544.56;;;9.81;100.00
65880;BME280;52661;51.364;6.054;2023-02-18T05:45:25;101543.44;;;9.82;100.00
65880;BME280;52661;51.364;6.054;2023-02-18T05:47:50;101537.22;;;9.81;100.00
65880;BME280;52661;51.364;6.054;2023-02-18T05:50:16;101548.84;;;9.82;100.00
65880;BME280;52661;51.364;6.054;2023-02-18T05:52:41;101535.28;;;9.82;100.00
65880;BME280;52661;51.364;6.054;2023-02-18T05:55:07;101541.84;;;9.81;100.00
65880;BME280;52661;51.364;6.054;2023-02-18T05:57:32;101536.81;;;9.79;100.00
65880;BME280;52661;51.364;6.054;2023-02-18T05:59:57;101529.81;;;9.78;100.00
65880;BME280;52661;51.364;6.054;2023-02-18T06:02:22;101532.53;;;9.78;100.00
65880;BME280;52661;51.364;6.054;2023-02-18T06:04:48;101542.59;;;9.78;100.00
65880;BME280;52661;51.364;6.054;2023-02-18T06:07:13;101535.59;;;9.77;100.00
65880;BME280;52661;51.364;6.054;2023-02-18T06:09:38;101539.88;;;9.78;100.00
65880;BME280;52661;51.364;6.054;2023-02-18T06:12:04;101534.88;;;9.80;100.00
65880;BME280;52661;51.364;6.054;2023-02-18T06:14:30;101545.72;;;9.80;100.00
65880;BME280;52661;51.364;6.054;2023-02-18T06:16:55;101538.72;;;9.79;100.00
65880;BME280;52661;51.364;6.054;2023-02-18T06:19:21;101531.75;;;9.78;100.00
65880;BME280;52661;51.364;6.054;2023-02-18T06:21:46;101524.41;;;9.78;100.00
65880;BME280;52661;51.364;6.054;2023-02-18T06:24:11;101520.09;;;9.77;100.00
65880;BME280;52661;51.364;6.054;2023-02-18T06:26:37;101523.53;;;9.74;100.00
65880;BME280;52661;51.364;6.054;2023-02-18T06:29:02;101532.81;;;9.73;100.00
65880;BME280;52661;51.364;6.054;2023-02-18T06:31:27;101530.84;;;9.70;100.00
65880;BME280;52661;51.364;6.054;2023-02-18T06:33:53;101525.41;;;9.70;100.00
65880;BME280;52661;51.364;6.054;2023-02-18T06:36:18;101538.97;;;9.70;100.00
65880;BME280;52661;51.364;6.054;2023-02-18T06:38:45;101538.97;;;9.70;100.00
65880;BME280;52661;51.364;6.054;2023-02-18T06:41:11;101535.84;;;9.68;100.00
65880;BME280;52661;51.364;6.054;2023-02-18T06:43:37;101534.34;;;9.71;100.00
65880;BME280;52661;51.364;6.054;2023-02-18T06:46:03;101528.56;;;9.72;100.00
65880;BME280;52661;51.364;6.054;2023-02-18T06:48:28;101540.25;;;9.76;100.00
65880;BME280;52661;51.364;6.054;2023-02-18T06:50:54;101547.66;;;9.79;100.00
65880;BME280;52661;51.364;6.054;2023-02-18T06:53:19;101549.63;;;9.82;100.00
65880;BME280;52661;51.364;6.054;2023-02-18T06:55:45;101537.66;;;9.83;100.00
65880;BME280;52661;51.364;6.054;2023-02-18T06:58:11;101551.22;;;9.83;100.00
65880;BME280;52661;51.364;6.054;2023-02-18T07:00:37;101543.47;;;9.85;100.00
65880;BME280;52661;51.364;6.054;2023-02-18T07:03:03;101547.38;;;9.88;100.00
65880;BME280;52661;51.364;6.054;2023-02-18T07:05:29;101545.84;;;9.87;100.00
65880;BME280;52661;51.364;6.054;2023-02-18T07:07:54;101541.97;;;9.88;100.00
65880;BME280;52661;51.364;6.054;2023-02-18T07:10:20;101541.97;;;9.88;100.00
65880;BME280;52661;51.364;6.054;2023-02-18T07:12:45;101550.88;;;9.88;100.00
65880;BME280;52661;51.364;6.054;2023-02-18T07:15:11;101541.19;;;9.87;100.00
65880;BME280;52661;51.364;6.054;2023-02-18T07:17:36;101552.47;;;9.89;100.00
65880;BME280;52661;51.364;6.054;2023-02-18T07:20:03;101556.69;;;9.87;100.00
65880;BME280;52661;51.364;6.054;2023-02-18T07:22:28;101553.91;;;9.83;100.00
65880;BME280;52661;51.364;6.054;2023-02-18T07:24:54;101565.47;;;9.80;100.00
65880;BME280;52661;51.364;6.054;2023-02-18T07:27:20;101564.94;;;9.71;100.00
65880;BME280;52661;51.364;6.054;2023-02-18T07:29:46;101556.31;;;9.66;100.00
65880;BME280;52661;51.364;6.054;2023-02-18T07:32:12;101572.16;;;9.64;100.00
65880;BME280;52661;51.364;6.054;2023-02-18T07:34:38;101570.97;;;9.61;100.00
65880;BME280;52661;51.364;6.054;2023-02-18T07:37:03;101576.38;;;9.61;100.00
65880;BME280;52661;51.364;6.054;2023-02-18T07:39:38;101580.63;;;9.62;100.00
65880;BME280;52661;51.364;6.054;2023-02-18T07:42:04;101575.16;;;9.59;100.00
65880;BME280;52661;51.364;6.054;2023-02-18T07:44:29;101580.22;;;9.60;100.00
65880;BME280;52661;51.364;6.054;2023-02-18T07:46:55;101572.50;;;9.62;100.00
65880;BME280;52661;51.364;6.054;2023-02-18T07:49:20;101574.03;;;9.60;100.00
65880;BME280;52661;51.364;6.054;2023-02-18T07:51:47;101563.56;;;9.58;100.00
65880;BME280;52661;51.364;6.054;2023-02-18T07:54:12;101575.88;;;9.56;100.00
65880;BME280;52661;51.364;6.054;2023-02-18T07:56:38;101581.25;;;9.52;100.00
65880;BME280;52661;51.364;6.054;2023-02-18T07:59:04;101585.81;;;9.48;100.00
65880;BME280;52661;51.364;6.054;2023-02-18T08:01:29;101606.63;;;9.44;100.00
65880;BME280;52661;51.364;6.054;2023-02-18T08:03:54;101601.16;;;9.40;100.00
65880;BME280;52661;51.364;6.054;2023-02-18T08:06:32;101595.31;;;9.38;100.00
65880;BME280;52661;51.364;6.054;2023-02-18T08:08:57;101586.78;;;9.36;100.00
65880;BME280;52661;51.364;6.054;2023-02-18T08:11:23;101585.63;;;9.37;100.00
65880;BME280;52661;51.364;6.054;2023-02-18T08:13:48;101577.13;;;9.39;100.00
65880;BME280;52661;51.364;6.054;2023-02-18T08:16:15;101574.44;;;9.39;100.00
65880;BME280;52661;51.364;6.054;2023-02-18T08:18:41;101581.03;;;9.42;100.00
65880;BME280;52661;51.364;6.054;2023-02-18T08:21:06;101582.19;;;9.40;100.00
65880;BME280;52661;51.364;6.054;2023-02-18T08:23:32;101569.88;;;9.43;100.00
65880;BME280;52661;51.364;6.054;2023-02-18T08:25:57;101576.81;;;9.44;100.00
65880;BME280;52661;51.364;6.054;2023-02-18T08:28:23;101571.84;;;9.46;100.00
65880;BME280;52661;51.364;6.054;2023-02-18T08:30:52;101574.91;;;9.45;100.00
65880;BME280;52661;51.364;6.054;2023-02-18T08:33:19;101584.25;;;9.47;100.00
65880;BME280;52661;51.364;6.054;2023-02-18T08:35:45;101582.34;;;9.48;100.00
65880;BME280;52661;51.364;6.054;2023-02-18T08:38:11;101593.19;;;9.48;100.00
65880;BME280;52661;51.364;6.054;2023-02-18T08:40:37;101579.63;;;9.48;100.00
65880;BME280;52661;51.364;6.054;2023-02-18T08:43:02;101581.97;;;9.49;100.00
65880;BME280;52661;51.364;6.054;2023-02-18T08:45:28;101582.34;;;9.48;100.00
65880;BME280;52661;51.364;6.054;2023-02-18T08:47:53;101583.09;;;9.48;100.00
65880;BME280;52661;51.364;6.054;2023-02-18T08:50:19;101591.22;;;9.48;100.00
65880;BME280;52661;51.364;6.054;2023-02-18T08:52:46;101597.88;;;9.51;100.00
65880;BME280;52661;51.364;6.054;2023-02-18T08:55:12;101585.88;;;9.52;100.00
65880;BME280;52661;51.364;6.054;2023-02-18T08:57:37;101571.19;;;9.53;100.00
65880;BME280;52661;51.364;6.054;2023-02-18T09:00:03;101590.22;;;9.56;100.00
65880;BME280;52661;51.364;6.054;2023-02-18T09:02:30;101581.38;;;9.59;100.00
65880;BME280;52661;51.364;6.054;2023-02-18T09:04:55;101601.97;;;9.64;100.00
65880;BME280;52661;51.364;6.054;2023-02-18T09:07:21;101579.94;;;9.65;100.00
65880;BME280;52661;51.364;6.054;2023-02-18T09:09:46;101576.06;;;9.66;100.00
65880;BME280;52661;51.364;6.054;2023-02-18T09:12:11;101583.13;;;9.71;100.00
65880;BME280;52661;51.364;6.054;2023-02-18T09:14:37;101585.06;;;9.70;100.00
65880;BME280;52661;51.364;6.054;2023-02-18T09:17:03;101578.84;;;9.70;100.00
65880;BME280;52661;51.364;6.054;2023-02-18T09:19:28;101583.13;;;9.71;100.00
65880;BME280;52661;51.364;6.054;2023-02-18T09:21:53;101572.72;;;9.73;100.00
65880;BME280;52661;51.364;6.054;2023-02-18T09:24:21;101564.22;;;9.74;100.00
65880;BME280;52661;51.364;6.054;2023-02-18T09:26:46;101565.78;;;9.75;100.00
65880;BME280;52661;51.364;6.054;2023-02-18T09:29:11;101574.31;;;9.77;100.00
65880;BME280;52661;51.364;6.054;2023-02-18T09:31:37;101572.84;;;9.80;100.00
65880;BME280;52661;51.364;6.054;2023-02-18T09:34:04;101578.66;;;9.82;100.00
65880;BME280;52661;51.364;6.054;2023-02-18T09:36:30;101579.47;;;9.82;100.00
65880;BME280;52661;51.364;6.054;2023-02-18T09:38:56;101567.47;;;9.83;100.00
65880;BME280;52661;51.364;6.054;2023-02-18T09:41:44;101576.44;;;9.87;100.00
65880;BME280;52661;51.364;6.054;2023-02-18T09:44:24;101575.72;;;9.91;100.00
65880;BME280;52661;51.364;6.054;2023-02-18T09:46:54;101574.22;;;9.93;100.00
65880;BME280;52661;51.364;6.054;2023-02-18T09:49:28;101576.13;;;9.93;100.00
65880;BME280;52661;51.364;6.054;2023-02-18T09:51:55;101580.41;;;9.94;100.00
65880;BME280;52661;51.364;6.054;2023-02-18T09:54:21;101591.28;;;9.94;100.00
65880;BME280;52661;51.364;6.054;2023-02-18T09:56:48;101573.38;;;9.89;100.00
65880;BME280;52661;51.364;6.054;2023-02-18T09:59:19;101576.38;;;9.84;100.00
65880;BME280;52661;51.364;6.054;2023-02-18T10:01:48;101566.25;;;9.81;100.00
65880;BME280;52661;51.364;6.054;2023-02-18T10:06:49;101581.88;;;9.65;100.00
65880;BME280;52661;51.364;6.054;2023-02-18T10:09:22;101578.31;;;9.61;100.00
65880;BME280;52661;51.364;6.054;2023-02-18T10:11:52;101573.63;;;9.58;100.00
65880;BME280;52661;51.364;6.054;2023-02-18T10:14:19;101577.41;;;9.53;100.00
65880;BME280;52661;51.364;6.054;2023-02-18T10:16:45;101583.59;;;9.54;100.00
65880;BME280;52661;51.364;6.054;2023-02-18T10:19:20;101585.19;;;9.55;100.00
65880;BME280;52661;51.364;6.054;2023-02-18T10:21:46;101612.63;;;9.53;100.00
65880;BME280;52661;51.364;6.054;2023-02-18T10:24:28;101593.31;;;9.55;100.00
65880;BME280;52661;51.364;6.054;2023-02-18T10:26:56;101602.56;;;9.54;100.00
65880;BME280;52661;51.364;6.054;2023-02-18T10:29:22;101601.44;;;9.55;100.00
65880;BME280;52661;51.364;6.054;2023-02-18T10:32:39;101603.00;;;9.56;100.00
65880;BME280;52661;51.364;6.054;2023-02-18T10:34:41;101605.34;;;9.57;100.00
65880;BME280;52661;51.364;6.054;2023-02-18T10:37:27;101600.34;;;9.59;100.00
65880;BME280;52661;51.364;6.054;2023-02-18T10:45:37;101614.25;;;9.58;100.00
65880;BME280;52661;51.364;6.054;2023-02-18T10:51:21;101628.53;;;9.55;100.00
65880;BME280;52661;51.364;6.054;2023-02-18T10:53:50;101622.34;;;9.54;100.00
65880;BME280;52661;51.364;6.054;2023-02-18T10:56:41;101620.63;;;9.46;100.00
65880;BME280;52661;51.364;6.054;2023-02-18T10:59:17;101618.25;;;9.45;100.00
65880;BME280;52661;51.364;6.054;2023-02-18T11:01:44;101616.28;;;9.42;100.00
65880;BME280;52661;51.364;6.054;2023-02-18T11:04:17;101619.69;;;9.38;100.00
65880;BME280;52661;51.364;6.054;2023-02-18T11:06:47;101616.59;;;9.36;100.00
65880;BME280;52661;51.364;6.054;2023-02-18T11:09:28;101622.69;;;9.33;100.00
65880;BME280;52661;51.364;6.054;2023-02-18T11:12:03;101617.28;;;9.33;100.00
65880;BME280;52661;51.364;6.054;2023-02-18T11:17:15;101622.22;;;9.28;100.00
65880;BME280;52661;51.364;6.054;2023-02-18T11:19:42;101613.72;;;9.29;100.00
65880;BME280;52661;51.364;6.054;2023-02-18T11:22:14;101626.03;;;9.27;100.00
65880;BME280;52661;51.364;6.054;2023-02-18T11:24:42;101611.38;;;9.28;100.00
65880;BME280;52661;51.364;6.054;2023-02-18T11:27:42;101616.00;;;9.27;100.00
65880;BME280;52661;51.364;6.054;2023-02-18T11:30:25;101618.28;;;9.25;100.00
65880;BME280;52661;51.364;6.054;2023-02-18T11:32:57;101629.06;;;9.22;100.00
65880;BME280;52661;51.364;6.054;2023-02-18T11:35:27;101623.72;;;9.25;100.00
65880;BME280;52661;51.364;6.054;2023-02-18T11:37:56;101621.78;;;9.26;100.00
65880;BME280;52661;51.364;6.054;2023-02-18T11:40:33;101627.91;;;9.23;100.00
65880;BME280;52661;51.364;6.054;2023-02-18T11:43:14;101625.13;;;9.19;100.00
65880;BME280;52661;51.364;6.054;2023-02-18T11:45:41;101627.81;;;9.19;100.00
65880;BME280;52661;51.364;6.054;2023-02-18T11:48:17;101618.63;;;9.24;100.00
65880;BME280;52661;51.364;6.054;2023-02-18T11:50:43;101617.44;;;9.21;100.00
65880;BME280;52661;51.364;6.054;2023-02-18T11:55:56;101619.16;;;9.29;100.00
65880;BME280;52661;51.364;6.054;2023-02-18T11:58:21;101621.06;;;9.29;100.00
65880;BME280;52661;51.364;6.054;2023-02-18T12:00:48;101621.41;;;9.27;100.00
65880;BME280;52661;51.364;6.054;2023-02-18T12:03:29;101618.00;;;9.30;100.00
65880;BME280;52661;51.364;6.054;2023-02-18T12:06:01;101628.81;;;9.30;100.00
65880;BME280;52661;51.364;6.054;2023-02-18T12:08:30;101621.41;;;9.27;100.00
65880;BME280;52661;51.364;6.054;2023-02-18T12:14:23;101614.94;;;9.32;100.00
65880;BME280;52661;51.364;6.054;2023-02-18T12:30:52;101609.16;;;9.33;100.00
65880;BME280;52661;51.364;6.054;2023-02-18T12:33:51;101610.72;;;9.34;100.00
65880;BME280;52661;51.364;6.054;2023-02-18T12:36:51;101612.28;;;9.35;100.00
65880;BME280;52661;51.364;6.054;2023-02-18T12:42:13;101604.22;;;9.39;100.00
65880;BME280;52661;51.364;6.054;2023-02-18T12:45:03;101600.00;;;9.42;100.00
65880;BME280;52661;51.364;6.054;2023-02-18T12:47:46;101601.22;;;9.44;100.00
65880;BME280;52661;51.364;6.054;2023-02-18T12:50:31;101600.09;;;9.45;100.00
65880;BME280;52661;51.364;6.054;2023-02-18T13:05:08;101595.28;;;9.58;100.00
65880;BME280;52661;51.364;6.054;2023-02-18T13:07:38;101605.41;;;9.61;100.00
65880;BME280;52661;51.364;6.054;2023-02-18T13:12:52;101597.47;;;9.71;100.00
65880;BME280;52661;51.364;6.054;2023-02-18T13:15:27;101594.81;;;9.75;100.00
65880;BME280;52661;51.364;6.054;2023-02-18T13:17:56;101598.72;;;9.77;100.00
65880;BME280;52661;51.364;6.054;2023-02-18T13:20:37;101601.09;;;9.79;100.00
65880;BME280;52661;51.364;6.054;2023-02-18T13:23:05;101606.13;;;9.80;100.00
65880;BME280;52661;51.364;6.054;2023-02-18T13:25:35;101610.41;;;9.81;100.00
65880;BME280;52661;51.364;6.054;2023-02-18T13:28:22;101600.41;;;9.85;100.00
65880;BME280;52661;51.364;6.054;2023-02-18T13:33:34;101595.13;;;9.93;100.00
65880;BME280;52661;51.364;6.054;2023-02-18T13:36:17;101593.59;;;9.95;100.00
65880;BME280;52661;51.364;6.054;2023-02-18T13:39:09;101600.59;;;9.96;100.00
65880;BME280;52661;51.364;6.054;2023-02-18T13:41:39;101596.44;;;10.02;100.00
65880;BME280;52661;51.364;6.054;2023-02-18T13:46:57;101602.41;;;10.11;100.00
65880;BME280;52661;51.364;6.054;2023-02-18T13:49:25;101600.88;;;10.14;100.00
65880;BME280;52661;51.364;6.054;2023-02-18T13:51:57;101601.69;;;10.14;100.00
65880;BME280;52661;51.364;6.054;2023-02-18T13:54:44;101595.94;;;10.16;100.00
65880;BME280;52661;51.364;6.054;2023-02-18T13:57:19;101597.84;;;10.15;100.00
65880;BME280;52661;51.364;6.054;2023-02-18T13:59:55;101582.38;;;10.16;100.00
65880;BME280;52661;51.364;6.054;2023-02-18T14:04:56;101580.53;;;10.23;100.00
65880;BME280;52661;51.364;6.054;2023-02-18T14:13:00;101591.06;;;10.28;100.00
65880;BME280;52661;51.364;6.054;2023-02-18T14:18:24;101593.00;;;10.28;100.00
65880;BME280;52661;51.364;6.054;2023-02-18T14:20:50;101591.44;;;10.27;100.00
65880;BME280;52661;51.364;6.054;2023-02-18T14:28:40;101591.00;;;10.25;100.00
65880;BME280;52661;51.364;6.054;2023-02-18T14:33:40;101594.16;;;10.27;100.00
65880;BME280;52661;51.364;6.054;2023-02-18T14:50:14;101605.00;;;10.27;100.00
65880;BME280;52661;51.364;6.054;2023-02-18T14:52:46;101600.03;;;10.32;100.00
65880;BME280;52661;51.364;6.054;2023-02-18T14:55:27;101602.81;;;10.36;100.00
65880;BME280;52661;51.364;6.054;2023-02-18T14:58:28;101599.69;;;10.34;100.00
65880;BME280;52661;51.364;6.054;2023-02-18T15:00:54;101604.34;;;10.33;100.00
65880;BME280;52661;51.364;6.054;2023-02-18T15:03:20;101602.03;;;10.35;100.00
65880;BME280;52661;51.364;6.054;2023-02-18T15:05:48;101605.91;;;10.34;100.00
65880;BME280;52661;51.364;6.054;2023-02-18T15:08:25;101600.47;;;10.34;100.00